KSTC/STC METAR and TAF weather

Enter ICAO airport designator
Station Type Date Time Source
KSTC METAR 2022/06/26 07:53 UTC NOAA

KSTC 260753Z AUTO 27011KT 10SM CLR 16/09 A3002 RMK AO2 SLP171 T01560089 TSNO


Station Type Date Time Source
KSTC Decoded METAR 2022/06/26 07:53 UTC NOAA

ST. CLOUD REGIONAL AIRPORT, MN, United States (KSTC) 45-33N 094-03W
Jun 26, 2022 - 03:53 AM EDT / 2022.06.26 0753 UTC
Wind: from the W (270 degrees) at 13 MPH (11 KT):0
Visibility: 10 mile(s):0
Sky conditions: clear
Temperature: 60.1 F (15.6 C)
Dew Point: 48.0 F (8.9 C)
Relative Humidity: 64%
Pressure (altimeter): 30.02 in. Hg (1016 hPa)
ob: KSTC 260753Z AUTO 27011KT 10SM CLR 16/09 A3002 RMK AO2 SLP171 T01560089 TSNO
cycle: 8

Station Type Date Time Source
KSTC TAF 2022/06/26 06:22 UTC NOAA

TAF KSTC 260520Z 2606/2706 27010G18KT P6SM SKC
FM261000 28013G21KT P6SM BKN050
FM261600 31019G31KT P6SM SCT070
FM270200 30008KT P6SM SKC

Example: see airport list